createdAt,value
2019-04-30T00:06:39.346Z,100419.00
2019-04-30T00:09:28.635Z,100419.00
2019-04-30T00:12:18.170Z,100418.00
2019-04-30T00:15:11.120Z,100407.00
2019-04-30T00:18:01.766Z,100414.00
2019-04-30T00:20:49.331Z,100405.00
2019-04-30T00:23:38.285Z,100410.00
2019-04-30T00:28:55.358Z,100408.00
2019-04-30T00:31:44.667Z,100409.00
2019-04-30T00:34:39.176Z,100403.00
2019-04-30T00:42:24.521Z,100394.00
2019-04-30T00:45:10.082Z,100397.00
2019-04-30T00:47:59.403Z,100388.00
2019-04-30T00:53:16.531Z,100398.00
2019-04-30T00:56:05.798Z,100391.00
2019-04-30T00:58:57.651Z,100385.00
2019-04-30T01:04:26.633Z,100391.00
2019-04-30T01:09:39.639Z,100393.00
2019-04-30T01:12:34.643Z,100384.00
2019-04-30T01:15:22.108Z,100383.00
2019-04-30T01:18:11.109Z,100384.00
2019-04-30T01:21:03.067Z,100379.00
2019-04-30T01:23:54.651Z,100378.00
2019-04-30T01:26:44.181Z,100384.00
2019-04-30T01:31:59.375Z,100381.00
2019-04-30T01:34:52.708Z,100379.00
2019-04-30T01:37:39.930Z,100373.00
2019-04-30T01:40:31.408Z,100373.00
2019-04-30T01:43:13.846Z,100381.00
2019-04-30T01:45:56.297Z,100378.00
2019-04-30T01:48:50.588Z,100398.00
2019-04-30T01:51:38.696Z,100386.00
2019-04-30T01:54:29.185Z,100384.00
2019-04-30T01:57:13.124Z,100380.00
2019-04-30T02:00:11.660Z,100384.00
2019-04-30T02:03:01.491Z,100386.00
2019-04-30T02:05:44.509Z,100386.00
2019-04-30T02:08:27.216Z,100383.00
2019-04-30T02:11:09.685Z,100385.00
2019-04-30T02:13:52.993Z,100379.00
2019-04-30T02:19:02.029Z,100383.00
2019-04-30T02:21:51.371Z,100375.00
2019-04-30T02:24:40.942Z,100371.00
2019-04-30T02:27:23.866Z,100379.00
2019-04-30T02:30:05.796Z,100377.00
2019-04-30T02:35:25.834Z,100375.00
2019-04-30T02:38:24.672Z,100369.00
2019-04-30T02:41:15.630Z,100372.00
2019-04-30T02:46:44.349Z,100374.00
2019-04-30T02:49:34.764Z,100371.00
2019-04-30T02:52:26.382Z,100370.00
2019-04-30T02:57:41.707Z,100375.00
2019-04-30T03:00:32.843Z,100373.00
2019-04-30T03:03:25.068Z,100376.00
2019-04-30T03:06:13.009Z,100375.00
2019-04-30T03:09:02.150Z,100379.00
2019-04-30T03:11:51.445Z,100376.00
2019-04-30T03:14:41.116Z,100376.00
2019-04-30T03:20:32.632Z,100376.00
2019-04-30T03:23:15.131Z,100383.00
2019-04-30T03:26:04.873Z,100380.00
2019-04-30T03:31:22.367Z,100374.00
2019-04-30T03:34:17.999Z,100383.00
2019-04-30T03:37:02.765Z,100379.00
2019-04-30T03:39:51.969Z,100384.00
2019-04-30T03:42:41.479Z,100385.00
2019-04-30T03:45:31.176Z,100381.00
2019-04-30T03:50:53.415Z,100382.00
2019-04-30T03:53:39.718Z,100377.00
2019-04-30T03:56:29.875Z,100376.00
2019-04-30T03:59:20.164Z,100385.00
2019-04-30T04:05:10.386Z,100383.00
2019-04-30T04:08:01.840Z,100380.00
2019-04-30T04:10:54.981Z,100376.00
2019-04-30T04:13:40.034Z,100390.00
2019-04-30T04:16:21.899Z,100378.00
2019-04-30T04:21:39.161Z,100383.00
2019-04-30T04:24:30.082Z,100384.00
2019-04-30T04:27:19.452Z,100383.00
2019-04-30T04:35:01.315Z,100387.00
2019-04-30T04:37:50.316Z,100379.00
2019-04-30T04:40:40.118Z,100384.00
2019-04-30T04:45:55.030Z,100389.00
2019-04-30T04:48:44.573Z,100383.00
2019-04-30T04:51:38.662Z,100400.00
2019-04-30T04:59:17.000Z,100395.00
2019-04-30T05:02:09.898Z,100391.00
2019-04-30T05:04:59.939Z,100389.00
2019-04-30T05:12:41.858Z,100395.00
2019-04-30T05:15:31.382Z,100402.00
2019-04-30T05:18:22.670Z,100410.00
2019-04-30T05:23:36.991Z,100414.00
2019-04-30T05:26:28.588Z,100401.00
2019-04-30T05:29:19.012Z,100409.00
2019-04-30T05:34:35.028Z,100419.00
2019-04-30T05:37:24.672Z,100427.00
2019-04-30T05:40:14.370Z,100421.00
2019-04-30T05:43:03.715Z,100427.00
2019-04-30T05:45:52.920Z,100429.00
2019-04-30T05:48:43.390Z,100428.00
2019-04-30T05:56:24.622Z,100439.00
2019-04-30T05:59:15.055Z,100439.00
2019-04-30T06:02:04.355Z,100439.00
2019-04-30T06:04:53.577Z,100440.00
2019-04-30T06:07:43.108Z,100442.00
2019-04-30T06:10:40.684Z,100440.00
2019-04-30T06:13:32.124Z,100438.00
2019-04-30T06:21:13.946Z,100439.00
2019-04-30T06:24:03.690Z,100444.00
2019-04-30T06:26:53.122Z,100440.00
2019-04-30T06:29:42.789Z,100445.00
2019-04-30T06:32:32.025Z,100446.00
2019-04-30T06:35:23.057Z,100439.00
2019-04-30T06:40:39.149Z,100442.00
2019-04-30T06:43:22.537Z,100452.00
2019-04-30T06:46:05.717Z,100447.00
2019-04-30T06:48:50.571Z,100452.00
2019-04-30T06:56:32.226Z,100452.00
2019-04-30T06:59:21.903Z,100444.00
2019-04-30T07:02:11.502Z,100458.00
2019-04-30T07:07:37.113Z,100461.00
2019-04-30T07:13:04.757Z,100458.00
2019-04-30T07:18:20.236Z,100456.00
2019-04-30T07:21:09.531Z,100460.00
2019-04-30T07:23:59.708Z,100465.00
2019-04-30T07:26:49.133Z,100458.00
2019-04-30T07:29:39.264Z,100463.00
2019-04-30T07:32:29.037Z,100456.00
2019-04-30T07:35:19.871Z,100468.00
2019-04-30T07:38:09.290Z,100473.00
2019-04-30T07:40:59.208Z,100460.00
2019-04-30T07:43:41.525Z,100463.00
2019-04-30T07:46:35.086Z,100466.00
2019-04-30T07:49:21.373Z,100462.00
2019-04-30T07:52:12.195Z,100461.00
2019-04-30T07:55:02.228Z,100455.00
2019-04-30T07:57:52.019Z,100458.00
2019-04-30T08:03:10.904Z,100462.00
2019-04-30T08:06:02.072Z,100463.00
2019-04-30T08:08:56.893Z,100465.00
2019-04-30T08:11:43.702Z,100469.00
2019-04-30T08:14:33.267Z,100475.00
2019-04-30T08:17:22.529Z,100475.00
2019-04-30T08:20:12.057Z,100472.00
2019-04-30T08:23:13.328Z,100467.00
2019-04-30T08:25:52.967Z,100479.00
2019-04-30T08:28:44.269Z,100479.00
2019-04-30T08:36:25.897Z,100481.00
2019-04-30T08:39:15.657Z,100482.00
2019-04-30T08:42:04.483Z,100489.00
2019-04-30T08:47:21.264Z,100480.00
2019-04-30T08:50:11.459Z,100487.00
2019-04-30T08:53:00.512Z,100475.00
2019-04-30T08:55:30.340Z,100485.00
2019-04-30T09:03:11.052Z,100494.00
2019-04-30T09:06:02.477Z,100495.00
2019-04-30T09:08:51.868Z,100495.00
2019-04-30T09:14:08.569Z,100495.00
2019-04-30T09:16:59.410Z,100499.00
2019-04-30T09:19:49.265Z,100502.00
2019-04-30T09:25:04.020Z,100490.00
2019-04-30T09:27:53.038Z,100480.00
2019-04-30T09:30:42.201Z,100479.00
2019-04-30T09:33:31.873Z,100481.00
2019-04-30T09:36:21.631Z,100485.00
2019-04-30T09:39:11.631Z,100484.00
2019-04-30T09:42:00.433Z,100486.00
2019-04-30T09:44:49.884Z,100477.00
2019-04-30T09:47:41.876Z,100482.00
2019-04-30T09:52:55.475Z,100470.00
2019-04-30T09:55:45.150Z,100483.00
2019-04-30T09:58:34.052Z,100472.00
2019-04-30T10:01:22.690Z,100470.00
2019-04-30T10:06:45.576Z,100462.00
2019-04-30T10:09:35.215Z,100462.00
2019-04-30T10:12:24.831Z,100471.00
2019-04-30T10:15:14.979Z,100463.00
2019-04-30T10:18:04.586Z,100463.00
2019-04-30T10:20:58.904Z,100461.00
2019-04-30T10:23:49.923Z,100457.00
2019-04-30T10:26:39.206Z,100459.00
2019-04-30T10:29:28.990Z,100458.00
2019-04-30T10:32:18.842Z,100457.00
2019-04-30T10:40:00.103Z,100457.00
2019-04-30T10:42:49.568Z,100459.00
2019-04-30T10:45:39.134Z,100461.00
2019-04-30T10:48:28.276Z,100459.00
2019-04-30T10:51:18.911Z,100464.00
2019-04-30T10:54:08.900Z,100455.00
2019-04-30T10:59:24.031Z,100455.00
2019-04-30T11:02:13.908Z,100451.00
2019-04-30T11:05:03.367Z,100458.00
2019-04-30T11:07:51.960Z,100460.00
2019-04-30T11:10:42.913Z,100460.00
2019-04-30T11:13:32.340Z,100450.00
2019-04-30T11:16:21.893Z,100459.00
2019-04-30T11:19:10.856Z,100458.00
2019-04-30T11:21:53.637Z,100450.00
2019-04-30T11:27:20.197Z,100450.00
2019-04-30T11:30:20.203Z,100454.00
2019-04-30T11:33:00.609Z,100446.00
2019-04-30T11:40:44.795Z,100447.00
2019-04-30T11:43:34.598Z,100443.00
2019-04-30T11:46:42.528Z,100446.00
2019-04-30T11:49:32.677Z,100443.00
2019-04-30T11:52:22.028Z,100446.00
2019-04-30T11:57:37.202Z,100449.00
2019-04-30T12:00:30.466Z,100435.00
2019-04-30T12:03:20.039Z,100440.00
2019-04-30T12:11:05.394Z,100443.00
2019-04-30T12:13:54.958Z,100431.00
2019-04-30T12:16:44.308Z,100438.00
2019-04-30T12:24:25.799Z,100427.00
2019-04-30T12:27:15.450Z,100441.00
2019-04-30T12:30:04.797Z,100435.00
2019-04-30T12:32:53.544Z,100436.00
2019-04-30T12:35:42.403Z,100442.00
2019-04-30T12:38:31.959Z,100435.00
2019-04-30T12:43:47.308Z,100434.00
2019-04-30T12:46:38.633Z,100431.00
2019-04-30T12:49:05.527Z,100428.00
2019-04-30T12:52:02.496Z,100434.00
2019-04-30T12:54:59.142Z,100442.00
2019-04-30T12:57:58.802Z,100424.00
2019-04-30T13:03:07.515Z,100426.00
2019-04-30T13:05:58.412Z,100421.00
2019-04-30T13:08:26.628Z,100412.00
2019-04-30T13:11:16.609Z,100418.00
2019-04-30T13:14:07.017Z,100417.00
2019-04-30T13:16:35.153Z,100409.00
2019-04-30T13:19:24.879Z,100411.00
2019-04-30T13:22:14.704Z,100413.00
2019-04-30T13:25:03.959Z,100402.00
2019-04-30T13:27:55.572Z,100399.00
2019-04-30T13:30:45.649Z,100402.00
2019-04-30T13:33:39.604Z,100409.00
2019-04-30T13:41:29.733Z,100402.00
2019-04-30T13:44:20.237Z,100392.00
2019-04-30T13:47:10.949Z,100396.00
2019-04-30T13:50:00.711Z,100399.00
2019-04-30T13:52:49.855Z,100394.00
2019-04-30T13:55:45.610Z,100393.00
2019-04-30T13:58:30.638Z,100400.00
2019-04-30T14:01:21.414Z,100397.00
2019-04-30T14:04:12.447Z,100399.00
2019-04-30T14:07:05.680Z,100388.00
2019-04-30T14:09:55.095Z,100387.00
2019-04-30T14:12:46.245Z,100393.00
2019-04-30T14:15:36.288Z,100386.00
2019-04-30T14:18:30.618Z,100383.00
2019-04-30T14:26:09.792Z,100394.00
2019-04-30T14:28:59.536Z,100392.00
2019-04-30T14:31:48.846Z,100388.00
2019-04-30T14:34:39.507Z,100385.00
2019-04-30T14:37:31.857Z,100392.00
2019-04-30T14:40:22.543Z,100380.00
2019-04-30T14:48:36.220Z,100387.00
2019-04-30T14:51:26.777Z,100377.00
2019-04-30T14:54:32.232Z,100374.00
2019-04-30T14:57:38.345Z,100376.00
2019-04-30T15:00:39.585Z,100372.00
2019-04-30T15:03:31.519Z,100379.00
2019-04-30T15:06:20.167Z,100365.00
2019-04-30T15:09:09.749Z,100376.00
2019-04-30T15:11:59.335Z,100378.00
2019-04-30T15:14:49.303Z,100378.00
2019-04-30T15:17:41.221Z,100375.00
2019-04-30T15:20:30.859Z,100365.00
2019-04-30T15:23:31.267Z,100360.00
2019-04-30T15:26:24.480Z,100360.00
2019-04-30T15:29:15.896Z,100367.00
2019-04-30T15:32:04.484Z,100369.00
2019-04-30T15:34:54.233Z,100356.00
2019-04-30T15:37:38.519Z,100354.00
2019-04-30T15:40:21.238Z,100360.00
2019-04-30T15:43:04.886Z,100355.00
2019-04-30T15:45:40.317Z,100350.00
2019-04-30T15:48:24.838Z,100352.00
2019-04-30T15:51:08.990Z,100353.00
2019-04-30T15:53:58.041Z,100353.00
2019-04-30T15:56:43.714Z,100347.00
2019-04-30T15:59:25.305Z,100358.00
2019-04-30T16:02:09.577Z,100352.00
2019-04-30T16:04:57.448Z,100358.00
2019-04-30T16:07:40.755Z,100351.00
2019-04-30T16:10:21.511Z,100354.00
2019-04-30T16:13:05.952Z,100342.00
2019-04-30T16:15:42.466Z,100345.00
2019-04-30T16:18:24.679Z,100338.00
2019-04-30T16:21:09.193Z,100336.00
2019-04-30T16:23:58.504Z,100334.00
2019-04-30T16:26:49.007Z,100335.00
2019-04-30T16:29:19.460Z,100266.00
2019-04-30T16:32:01.728Z,100333.00
2019-04-30T16:34:38.953Z,100322.00
2019-04-30T16:37:21.934Z,100330.00
2019-04-30T16:39:58.065Z,100326.00
2019-04-30T16:42:39.852Z,100331.00
2019-04-30T16:45:16.144Z,100318.00
2019-04-30T16:47:59.600Z,100319.00
2019-04-30T16:50:35.484Z,100323.00
2019-04-30T16:53:17.468Z,100330.00
2019-04-30T16:55:54.090Z,100322.00
2019-04-30T16:58:39.000Z,100324.00
2019-04-30T17:01:17.016Z,100319.00
2019-04-30T17:04:01.619Z,100314.00
2019-04-30T17:06:55.929Z,100319.00
2019-04-30T17:09:43.383Z,100317.00
2019-04-30T17:12:20.788Z,100307.00
2019-04-30T17:15:04.751Z,100306.00
2019-04-30T17:17:40.793Z,100307.00
2019-04-30T17:20:23.384Z,100310.00
2019-04-30T17:22:59.946Z,100302.00
2019-04-30T17:25:43.035Z,100303.00
2019-04-30T17:28:19.179Z,100301.00
2019-04-30T17:31:02.521Z,100304.00
2019-04-30T17:33:45.413Z,100270.00
2019-04-30T17:36:34.890Z,100309.00
2019-04-30T17:39:19.145Z,100309.00
2019-04-30T17:41:55.909Z,100313.00
2019-04-30T17:44:39.784Z,100309.00
2019-04-30T17:47:16.191Z,100305.00
2019-04-30T17:49:58.884Z,100304.00
2019-04-30T17:52:35.451Z,100303.00
2019-04-30T17:55:19.362Z,100302.00
2019-04-30T17:58:02.263Z,100307.00
2019-04-30T18:00:48.651Z,100302.00
2019-04-30T18:03:24.724Z,100309.00
2019-04-30T18:06:10.664Z,100303.00
2019-04-30T18:08:47.448Z,100309.00
2019-04-30T18:11:30.527Z,100316.00
2019-04-30T18:14:13.213Z,100310.00
2019-04-30T18:16:51.030Z,100314.00
2019-04-30T18:19:51.355Z,100318.00
2019-04-30T18:22:59.288Z,100313.00
2019-04-30T18:25:50.587Z,100310.00
2019-04-30T18:28:26.576Z,100311.00
2019-04-30T18:31:09.853Z,100317.00
2019-04-30T18:33:52.003Z,100325.00
2019-04-30T18:36:34.639Z,100331.00
2019-04-30T18:39:11.118Z,100319.00
2019-04-30T18:41:54.552Z,100315.00
2019-04-30T18:44:44.650Z,100322.00
2019-04-30T18:47:26.943Z,100320.00
2019-04-30T18:50:12.602Z,100322.00
2019-04-30T18:53:04.460Z,100315.00
2019-04-30T18:55:55.144Z,100322.00
2019-04-30T18:58:42.935Z,100321.00
2019-04-30T19:01:17.997Z,100325.00
2019-04-30T19:04:01.610Z,100312.00
2019-04-30T19:06:38.694Z,100316.00
2019-04-30T19:09:40.165Z,100310.00
2019-04-30T19:12:39.034Z,100316.00
2019-04-30T19:15:40.919Z,100316.00
2019-04-30T19:18:20.218Z,100313.00
2019-04-30T19:21:04.660Z,100308.00
2019-04-30T19:23:40.561Z,100316.00
2019-04-30T19:26:23.786Z,100306.00
2019-04-30T19:29:00.180Z,100310.00
2019-04-30T19:31:42.683Z,100308.00
2019-04-30T19:34:19.545Z,100305.00
2019-04-30T19:37:02.387Z,100316.00
2019-04-30T19:39:39.249Z,100307.00
2019-04-30T19:42:21.963Z,100308.00
2019-04-30T19:45:09.401Z,100303.00
2019-04-30T19:47:45.646Z,100305.00
2019-04-30T19:50:35.523Z,100306.00
2019-04-30T19:53:24.171Z,100300.00
2019-04-30T19:56:13.767Z,100299.00
2019-04-30T19:59:05.665Z,100300.00
2019-04-30T20:01:54.731Z,100299.00
2019-04-30T20:04:44.756Z,100297.00
2019-04-30T20:07:34.477Z,100293.00
2019-04-30T20:10:23.810Z,100294.00
2019-04-30T20:13:13.146Z,100297.00
2019-04-30T20:16:02.664Z,100226.00
2019-04-30T20:18:52.202Z,100290.00
2019-04-30T20:24:07.723Z,100286.00
2019-04-30T20:27:04.978Z,100284.00
2019-04-30T20:29:51.722Z,100280.00
2019-04-30T20:32:40.318Z,100286.00
2019-04-30T20:35:29.912Z,100285.00
2019-04-30T20:38:37.725Z,100285.00
2019-04-30T20:44:00.570Z,100287.00
2019-04-30T20:46:49.489Z,100278.00
2019-04-30T20:49:39.189Z,100277.00
2019-04-30T20:52:29.021Z,100274.00
2019-04-30T20:55:19.182Z,100266.00
2019-04-30T20:58:09.475Z,100269.00
2019-04-30T21:01:03.549Z,100272.00
2019-04-30T21:06:24.543Z,100266.00
2019-04-30T21:09:14.632Z,100256.00
2019-04-30T21:12:04.184Z,100262.00
2019-04-30T21:17:19.530Z,100260.00
2019-04-30T21:20:09.692Z,100247.00
2019-04-30T21:22:59.655Z,100255.00
2019-04-30T21:25:49.478Z,100258.00
2019-04-30T21:28:39.346Z,100243.00
2019-04-30T21:31:43.228Z,100252.00
2019-04-30T21:39:45.699Z,100252.00
2019-04-30T21:42:34.431Z,100252.00
2019-04-30T21:45:23.903Z,100244.00
2019-04-30T21:48:13.205Z,100165.00
2019-04-30T21:51:02.532Z,100245.00
2019-04-30T21:53:52.134Z,100240.00
2019-04-30T21:59:07.272Z,100247.00
2019-04-30T22:01:57.289Z,100245.00
2019-04-30T22:04:46.119Z,100235.00
2019-04-30T22:07:35.182Z,100228.00
2019-04-30T22:10:24.007Z,100236.00
2019-04-30T22:13:12.769Z,100229.00
2019-04-30T22:16:01.713Z,100226.00
2019-04-30T22:18:51.300Z,100223.00
2019-04-30T22:21:40.623Z,100216.00
2019-04-30T22:26:55.893Z,100209.00
2019-04-30T22:29:45.012Z,100208.00
2019-04-30T22:32:34.862Z,100205.00
2019-04-30T22:37:50.647Z,100197.00
2019-04-30T22:40:40.406Z,100202.00
2019-04-30T22:43:29.015Z,100201.00
2019-04-30T22:46:22.309Z,100189.00
2019-04-30T22:51:46.613Z,100177.00
2019-04-30T22:54:36.403Z,100179.00
2019-04-30T22:57:25.911Z,100168.00
2019-04-30T23:02:43.360Z,100162.00
2019-04-30T23:05:32.246Z,100165.00
2019-04-30T23:08:21.296Z,100156.00
2019-04-30T23:11:11.098Z,100156.00
2019-04-30T23:14:00.553Z,100155.00
2019-04-30T23:16:50.204Z,100145.00
2019-04-30T23:22:05.084Z,100144.00
2019-04-30T23:24:54.220Z,100131.00
2019-04-30T23:27:43.125Z,100127.00
2019-04-30T23:30:32.076Z,100126.00
2019-04-30T23:33:21.538Z,100117.00
2019-04-30T23:36:10.918Z,100117.00
2019-04-30T23:39:00.376Z,100105.00
2019-04-30T23:41:49.643Z,100107.00
2019-04-30T23:44:38.820Z,100102.00
2019-04-30T23:47:28.088Z,100102.00
2019-04-30T23:50:19.078Z,100097.00
2019-04-30T23:53:09.012Z,100092.00
2019-04-30T23:58:25.136Z,100082.00
